sensor_id;sensor_type;location;lat;lon;timestamp;P1;durP1;ratioP1;P2;durP2;ratioP2
56927;SDS011;60850;52.502;13.426;2023-02-22T00:01:10;18.40;;;2.60;;
56927;SDS011;60850;52.502;13.426;2023-02-22T00:03:48;11.27;;;2.00;;
56927;SDS011;60850;52.502;13.426;2023-02-22T00:06:18;21.08;;;3.17;;
56927;SDS011;60850;52.502;13.426;2023-02-22T00:08:49;19.33;;;3.40;;
56927;SDS011;60850;52.502;13.426;2023-02-22T00:11:18;25.23;;;5.03;;
56927;SDS011;60850;52.502;13.426;2023-02-22T00:13:46;17.85;;;4.28;;
56927;SDS011;60850;52.502;13.426;2023-02-22T00:16:15;13.77;;;3.80;;
56927;SDS011;60850;52.502;13.426;2023-02-22T00:18:44;17.90;;;2.80;;
56927;SDS011;60850;52.502;13.426;2023-02-22T00:21:12;14.80;;;3.30;;
56927;SDS011;60850;52.502;13.426;2023-02-22T00:23:42;15.15;;;2.55;;
56927;SDS011;60850;52.502;13.426;2023-02-22T00:26:13;16.45;;;2.63;;
56927;SDS011;60850;52.502;13.426;2023-02-22T00:28:43;16.98;;;2.88;;
56927;SDS011;60850;52.502;13.426;2023-02-22T00:31:11;10.90;;;2.97;;
56927;SDS011;60850;52.502;13.426;2023-02-22T00:33:39;12.07;;;2.50;;
56927;SDS011;60850;52.502;13.426;2023-02-22T00:36:07;12.95;;;2.97;;
56927;SDS011;60850;52.502;13.426;2023-02-22T00:38:35;20.67;;;3.55;;
56927;SDS011;60850;52.502;13.426;2023-02-22T00:41:04;17.17;;;2.22;;
56927;SDS011;60850;52.502;13.426;2023-02-22T00:43:31;15.68;;;2.47;;
56927;SDS011;60850;52.502;13.426;2023-02-22T00:45:58;15.38;;;2.78;;
56927;SDS011;60850;52.502;13.426;2023-02-22T00:48:25;19.27;;;2.90;;
56927;SDS011;60850;52.502;13.426;2023-02-22T00:50:52;15.18;;;2.60;;
56927;SDS011;60850;52.502;13.426;2023-02-22T00:53:21;12.52;;;2.42;;
56927;SDS011;60850;52.502;13.426;2023-02-22T00:55:49;17.38;;;2.58;;
56927;SDS011;60850;52.502;13.426;2023-02-22T00:58:17;11.30;;;2.80;;
56927;SDS011;60850;52.502;13.426;2023-02-22T01:00:45;12.90;;;1.90;;
56927;SDS011;60850;52.502;13.426;2023-02-22T01:03:13;12.18;;;2.13;;
56927;SDS011;60850;52.502;13.426;2023-02-22T01:05:41;9.40;;;2.25;;
56927;SDS011;60850;52.502;13.426;2023-02-22T01:08:09;13.68;;;3.17;;
56927;SDS011;60850;52.502;13.426;2023-02-22T01:10:38;11.80;;;2.22;;
56927;SDS011;60850;52.502;13.426;2023-02-22T01:13:05;20.38;;;2.17;;
56927;SDS011;60850;52.502;13.426;2023-02-22T01:15:38;13.05;;;2.47;;
56927;SDS011;60850;52.502;13.426;2023-02-22T01:18:06;15.23;;;2.67;;
56927;SDS011;60850;52.502;13.426;2023-02-22T01:20:33;19.27;;;2.58;;
56927;SDS011;60850;52.502;13.426;2023-02-22T01:23:01;15.98;;;2.83;;
56927;SDS011;60850;52.502;13.426;2023-02-22T01:25:31;17.52;;;2.05;;
56927;SDS011;60850;52.502;13.426;2023-02-22T01:27:59;12.07;;;2.13;;
56927;SDS011;60850;52.502;13.426;2023-02-22T01:30:30;16.55;;;3.22;;
56927;SDS011;60850;52.502;13.426;2023-02-22T01:33:00;15.48;;;2.30;;
56927;SDS011;60850;52.502;13.426;2023-02-22T01:35:28;14.00;;;3.35;;
56927;SDS011;60850;52.502;13.426;2023-02-22T01:37:58;18.85;;;2.72;;
56927;SDS011;60850;52.502;13.426;2023-02-22T01:40:26;14.85;;;2.20;;
56927;SDS011;60850;52.502;13.426;2023-02-22T01:43:00;15.73;;;2.15;;
56927;SDS011;60850;52.502;13.426;2023-02-22T01:48:21;15.07;;;2.20;;
56927;SDS011;60850;52.502;13.426;2023-02-22T01:50:54;16.90;;;2.80;;
56927;SDS011;60850;52.502;13.426;2023-02-22T01:53:25;19.30;;;3.50;;
56927;SDS011;60850;52.502;13.426;2023-02-22T01:55:57;17.98;;;2.85;;
56927;SDS011;60850;52.502;13.426;2023-02-22T01:58:25;18.52;;;2.83;;
56927;SDS011;60850;52.502;13.426;2023-02-22T02:00:54;9.73;;;2.88;;
56927;SDS011;60850;52.502;13.426;2023-02-22T02:03:25;16.90;;;2.65;;
56927;SDS011;60850;52.502;13.426;2023-02-22T02:06:00;18.17;;;2.75;;
56927;SDS011;60850;52.502;13.426;2023-02-22T02:08:32;21.15;;;3.22;;
56927;SDS011;60850;52.502;13.426;2023-02-22T02:11:04;15.48;;;3.05;;
56927;SDS011;60850;52.502;13.426;2023-02-22T02:13:33;19.15;;;3.25;;
56927;SDS011;60850;52.502;13.426;2023-02-22T02:16:01;10.43;;;2.83;;
56927;SDS011;60850;52.502;13.426;2023-02-22T02:18:29;17.63;;;3.03;;
56927;SDS011;60850;52.502;13.426;2023-02-22T02:21:05;14.50;;;3.47;;
56927;SDS011;60850;52.502;13.426;2023-02-22T02:23:59;20.52;;;2.85;;
56927;SDS011;60850;52.502;13.426;2023-02-22T02:26:54;13.02;;;2.40;;
56927;SDS011;60850;52.502;13.426;2023-02-22T02:29:39;17.33;;;3.78;;
56927;SDS011;60850;52.502;13.426;2023-02-22T02:32:35;20.08;;;3.20;;
56927;SDS011;60850;52.502;13.426;2023-02-22T02:35:08;13.95;;;3.22;;
56927;SDS011;60850;52.502;13.426;2023-02-22T02:37:43;17.75;;;3.33;;
56927;SDS011;60850;52.502;13.426;2023-02-22T02:40:18;14.48;;;2.67;;
56927;SDS011;60850;52.502;13.426;2023-02-22T02:42:50;20.00;;;3.25;;
56927;SDS011;60850;52.502;13.426;2023-02-22T02:45:26;18.42;;;3.28;;
56927;SDS011;60850;52.502;13.426;2023-02-22T02:47:59;16.67;;;3.07;;
56927;SDS011;60850;52.502;13.426;2023-02-22T02:50:30;12.65;;;3.65;;
56927;SDS011;60850;52.502;13.426;2023-02-22T02:53:03;17.33;;;3.33;;
56927;SDS011;60850;52.502;13.426;2023-02-22T02:55:32;16.42;;;2.88;;
56927;SDS011;60850;52.502;13.426;2023-02-22T02:58:01;19.13;;;3.45;;
56927;SDS011;60850;52.502;13.426;2023-02-22T03:00:30;14.80;;;3.00;;
56927;SDS011;60850;52.502;13.426;2023-02-22T03:03:15;13.45;;;3.00;;
56927;SDS011;60850;52.502;13.426;2023-02-22T03:05:59;16.13;;;2.53;;
56927;SDS011;60850;52.502;13.426;2023-02-22T03:08:38;19.58;;;2.88;;
56927;SDS011;60850;52.502;13.426;2023-02-22T03:11:09;12.68;;;2.60;;
56927;SDS011;60850;52.502;13.426;2023-02-22T03:13:44;18.05;;;3.13;;
56927;SDS011;60850;52.502;13.426;2023-02-22T03:16:20;19.90;;;3.55;;
56927;SDS011;60850;52.502;13.426;2023-02-22T03:19:01;11.82;;;3.13;;
56927;SDS011;60850;52.502;13.426;2023-02-22T03:21:36;16.08;;;3.78;;
56927;SDS011;60850;52.502;13.426;2023-02-22T03:24:12;14.57;;;3.03;;
56927;SDS011;60850;52.502;13.426;2023-02-22T03:26:45;15.43;;;2.75;;
56927;SDS011;60850;52.502;13.426;2023-02-22T03:29:17;16.90;;;3.42;;
56927;SDS011;60850;52.502;13.426;2023-02-22T03:31:50;15.35;;;2.45;;
56927;SDS011;60850;52.502;13.426;2023-02-22T03:34:27;13.35;;;2.75;;
56927;SDS011;60850;52.502;13.426;2023-02-22T03:39:28;18.55;;;2.78;;
56927;SDS011;60850;52.502;13.426;2023-02-22T03:41:57;12.20;;;2.80;;
56927;SDS011;60850;52.502;13.426;2023-02-22T03:44:30;18.63;;;2.80;;
56927;SDS011;60850;52.502;13.426;2023-02-22T03:47:04;11.32;;;2.63;;
56927;SDS011;60850;52.502;13.426;2023-02-22T03:49:36;13.57;;;2.90;;
56927;SDS011;60850;52.502;13.426;2023-02-22T03:52:08;12.60;;;2.72;;
56927;SDS011;60850;52.502;13.426;2023-02-22T03:54:37;21.40;;;2.63;;
56927;SDS011;60850;52.502;13.426;2023-02-22T03:57:05;10.95;;;2.42;;
56927;SDS011;60850;52.502;13.426;2023-02-22T03:59:37;9.95;;;2.58;;
56927;SDS011;60850;52.502;13.426;2023-02-22T04:02:05;12.85;;;2.78;;
56927;SDS011;60850;52.502;13.426;2023-02-22T04:04:31;14.05;;;2.65;;
56927;SDS011;60850;52.502;13.426;2023-02-22T04:07:00;14.88;;;2.63;;
56927;SDS011;60850;52.502;13.426;2023-02-22T04:09:28;11.15;;;2.95;;
56927;SDS011;60850;52.502;13.426;2023-02-22T04:11:55;12.43;;;2.43;;
56927;SDS011;60850;52.502;13.426;2023-02-22T04:14:22;15.07;;;2.85;;
56927;SDS011;60850;52.502;13.426;2023-02-22T04:16:49;13.63;;;2.70;;
56927;SDS011;60850;52.502;13.426;2023-02-22T04:19:16;12.95;;;2.55;;
56927;SDS011;60850;52.502;13.426;2023-02-22T04:21:43;14.02;;;2.75;;
56927;SDS011;60850;52.502;13.426;2023-02-22T04:24:11;8.55;;;2.20;;
56927;SDS011;60850;52.502;13.426;2023-02-22T04:26:39;13.10;;;3.22;;
56927;SDS011;60850;52.502;13.426;2023-02-22T04:29:06;16.80;;;3.80;;
56927;SDS011;60850;52.502;13.426;2023-02-22T04:31:33;11.07;;;2.40;;
56927;SDS011;60850;52.502;13.426;2023-02-22T04:34:00;14.80;;;2.63;;
56927;SDS011;60850;52.502;13.426;2023-02-22T04:36:28;13.65;;;2.50;;
56927;SDS011;60850;52.502;13.426;2023-02-22T04:38:56;10.48;;;3.28;;
56927;SDS011;60850;52.502;13.426;2023-02-22T04:41:25;12.40;;;2.70;;
56927;SDS011;60850;52.502;13.426;2023-02-22T04:43:52;11.43;;;3.63;;
56927;SDS011;60850;52.502;13.426;2023-02-22T04:46:19;19.27;;;3.22;;
56927;SDS011;60850;52.502;13.426;2023-02-22T04:48:45;15.38;;;2.83;;
56927;SDS011;60850;52.502;13.426;2023-02-22T04:51:13;17.20;;;2.78;;
56927;SDS011;60850;52.502;13.426;2023-02-22T04:53:40;21.77;;;3.72;;
56927;SDS011;60850;52.502;13.426;2023-02-22T04:56:07;14.07;;;3.72;;
56927;SDS011;60850;52.502;13.426;2023-02-22T04:58:35;13.63;;;3.05;;
56927;SDS011;60850;52.502;13.426;2023-02-22T05:01:02;14.00;;;2.60;;
56927;SDS011;60850;52.502;13.426;2023-02-22T05:03:29;17.38;;;3.42;;
56927;SDS011;60850;52.502;13.426;2023-02-22T05:05:56;14.50;;;3.35;;
56927;SDS011;60850;52.502;13.426;2023-02-22T05:08:23;11.60;;;3.33;;
56927;SDS011;60850;52.502;13.426;2023-02-22T05:10:50;16.10;;;3.22;;
56927;SDS011;60850;52.502;13.426;2023-02-22T05:13:16;18.13;;;3.33;;
56927;SDS011;60850;52.502;13.426;2023-02-22T05:15:45;13.48;;;3.78;;
56927;SDS011;60850;52.502;13.426;2023-02-22T05:18:13;13.48;;;3.22;;
56927;SDS011;60850;52.502;13.426;2023-02-22T05:20:40;16.90;;;3.85;;
56927;SDS011;60850;52.502;13.426;2023-02-22T05:23:07;19.60;;;4.30;;
56927;SDS011;60850;52.502;13.426;2023-02-22T05:25:34;20.00;;;4.22;;
56927;SDS011;60850;52.502;13.426;2023-02-22T05:28:02;12.90;;;3.92;;
56927;SDS011;60850;52.502;13.426;2023-02-22T05:30:32;17.55;;;4.35;;
56927;SDS011;60850;52.502;13.426;2023-02-22T05:33:02;14.48;;;3.65;;
56927;SDS011;60850;52.502;13.426;2023-02-22T05:35:29;15.63;;;3.78;;
56927;SDS011;60850;52.502;13.426;2023-02-22T05:37:56;26.63;;;4.72;;
56927;SDS011;60850;52.502;13.426;2023-02-22T05:40:27;24.05;;;4.65;;
56927;SDS011;60850;52.502;13.426;2023-02-22T05:42:54;23.27;;;4.25;;
56927;SDS011;60850;52.502;13.426;2023-02-22T05:45:22;12.57;;;4.13;;
56927;SDS011;60850;52.502;13.426;2023-02-22T05:47:50;17.13;;;4.28;;
56927;SDS011;60850;52.502;13.426;2023-02-22T05:50:21;22.05;;;4.10;;
56927;SDS011;60850;52.502;13.426;2023-02-22T05:52:49;18.52;;;4.45;;
56927;SDS011;60850;52.502;13.426;2023-02-22T05:55:17;20.50;;;4.25;;
56927;SDS011;60850;52.502;13.426;2023-02-22T05:57:46;14.50;;;4.43;;
56927;SDS011;60850;52.502;13.426;2023-02-22T06:00:14;14.05;;;4.22;;
56927;SDS011;60850;52.502;13.426;2023-02-22T06:02:43;17.60;;;4.47;;
56927;SDS011;60850;52.502;13.426;2023-02-22T06:05:10;15.40;;;5.20;;
56927;SDS011;60850;52.502;13.426;2023-02-22T06:07:39;19.00;;;4.55;;
56927;SDS011;60850;52.502;13.426;2023-02-22T06:10:06;22.52;;;5.65;;
56927;SDS011;60850;52.502;13.426;2023-02-22T06:12:33;18.40;;;6.05;;
56927;SDS011;60850;52.502;13.426;2023-02-22T06:15:00;17.02;;;4.85;;
56927;SDS011;60850;52.502;13.426;2023-02-22T06:17:27;28.58;;;5.40;;
56927;SDS011;60850;52.502;13.426;2023-02-22T06:19:55;17.23;;;5.28;;
56927;SDS011;60850;52.502;13.426;2023-02-22T06:22:22;24.73;;;7.38;;
56927;SDS011;60850;52.502;13.426;2023-02-22T06:24:50;27.55;;;8.27;;
56927;SDS011;60850;52.502;13.426;2023-02-22T06:27:17;20.38;;;6.00;;
56927;SDS011;60850;52.502;13.426;2023-02-22T06:29:45;24.60;;;4.45;;
56927;SDS011;60850;52.502;13.426;2023-02-22T06:32:12;17.88;;;4.90;;
56927;SDS011;60850;52.502;13.426;2023-02-22T06:34:39;19.30;;;4.35;;
56927;SDS011;60850;52.502;13.426;2023-02-22T06:37:06;16.40;;;4.13;;
56927;SDS011;60850;52.502;13.426;2023-02-22T06:39:33;17.38;;;4.50;;
56927;SDS011;60850;52.502;13.426;2023-02-22T06:42:02;24.10;;;4.43;;
56927;SDS011;60850;52.502;13.426;2023-02-22T06:44:29;21.52;;;3.78;;
56927;SDS011;60850;52.502;13.426;2023-02-22T06:46:56;16.02;;;3.22;;
56927;SDS011;60850;52.502;13.426;2023-02-22T06:49:24;18.95;;;3.38;;
56927;SDS011;60850;52.502;13.426;2023-02-22T06:51:52;16.52;;;3.88;;
56927;SDS011;60850;52.502;13.426;2023-02-22T06:54:19;14.70;;;3.78;;
56927;SDS011;60850;52.502;13.426;2023-02-22T06:56:46;13.57;;;4.03;;
56927;SDS011;60850;52.502;13.426;2023-02-22T06:59:15;19.90;;;3.85;;
56927;SDS011;60850;52.502;13.426;2023-02-22T07:01:42;13.90;;;3.28;;
56927;SDS011;60850;52.502;13.426;2023-02-22T07:04:10;13.38;;;3.58;;
56927;SDS011;60850;52.502;13.426;2023-02-22T07:06:36;22.92;;;3.58;;
56927;SDS011;60850;52.502;13.426;2023-02-22T07:09:03;18.63;;;4.05;;
56927;SDS011;60850;52.502;13.426;2023-02-22T07:11:30;21.63;;;4.90;;
56927;SDS011;60850;52.502;13.426;2023-02-22T07:13:57;14.93;;;3.97;;
56927;SDS011;60850;52.502;13.426;2023-02-22T07:16:26;13.32;;;3.67;;
56927;SDS011;60850;52.502;13.426;2023-02-22T07:18:53;16.23;;;4.13;;
56927;SDS011;60850;52.502;13.426;2023-02-22T07:21:20;14.85;;;4.25;;
56927;SDS011;60850;52.502;13.426;2023-02-22T07:23:50;18.63;;;3.55;;
56927;SDS011;60850;52.502;13.426;2023-02-22T07:26:18;17.73;;;4.25;;
56927;SDS011;60850;52.502;13.426;2023-02-22T07:28:46;14.07;;;4.18;;
56927;SDS011;60850;52.502;13.426;2023-02-22T07:31:13;20.30;;;4.85;;
56927;SDS011;60850;52.502;13.426;2023-02-22T07:33:42;21.50;;;4.63;;
56927;SDS011;60850;52.502;13.426;2023-02-22T07:36:08;12.77;;;3.42;;
56927;SDS011;60850;52.502;13.426;2023-02-22T07:38:38;20.25;;;5.47;;
56927;SDS011;60850;52.502;13.426;2023-02-22T07:41:04;18.13;;;5.07;;
56927;SDS011;60850;52.502;13.426;2023-02-22T07:43:31;15.93;;;5.75;;
56927;SDS011;60850;52.502;13.426;2023-02-22T07:45:59;16.88;;;5.35;;
56927;SDS011;60850;52.502;13.426;2023-02-22T07:48:28;18.58;;;5.82;;
56927;SDS011;60850;52.502;13.426;2023-02-22T07:50:57;17.27;;;6.07;;
56927;SDS011;60850;52.502;13.426;2023-02-22T07:53:25;20.10;;;6.28;;
56927;SDS011;60850;52.502;13.426;2023-02-22T07:55:54;14.50;;;5.93;;
56927;SDS011;60850;52.502;13.426;2023-02-22T07:58:23;19.17;;;6.60;;
56927;SDS011;60850;52.502;13.426;2023-02-22T08:00:51;15.18;;;4.82;;
56927;SDS011;60850;52.502;13.426;2023-02-22T08:03:19;16.63;;;5.20;;
56927;SDS011;60850;52.502;13.426;2023-02-22T08:05:48;27.65;;;6.10;;
56927;SDS011;60850;52.502;13.426;2023-02-22T08:08:18;18.63;;;4.75;;
56927;SDS011;60850;52.502;13.426;2023-02-22T08:10:45;16.42;;;4.28;;
56927;SDS011;60850;52.502;13.426;2023-02-22T08:13:14;22.13;;;5.75;;
56927;SDS011;60850;52.502;13.426;2023-02-22T08:15:41;23.95;;;4.88;;
56927;SDS011;60850;52.502;13.426;2023-02-22T08:18:10;25.17;;;4.55;;
56927;SDS011;60850;52.502;13.426;2023-02-22T08:20:39;14.90;;;4.25;;
56927;SDS011;60850;52.502;13.426;2023-02-22T08:23:07;12.57;;;4.30;;
56927;SDS011;60850;52.502;13.426;2023-02-22T08:25:36;22.42;;;3.85;;
56927;SDS011;60850;52.502;13.426;2023-02-22T08:28:04;17.60;;;4.75;;
56927;SDS011;60850;52.502;13.426;2023-02-22T08:30:32;13.70;;;3.88;;
56927;SDS011;60850;52.502;13.426;2023-02-22T08:33:01;20.13;;;4.65;;
56927;SDS011;60850;52.502;13.426;2023-02-22T08:35:29;21.05;;;5.50;;
56927;SDS011;60850;52.502;13.426;2023-02-22T08:37:57;22.48;;;6.10;;
56927;SDS011;60850;52.502;13.426;2023-02-22T08:40:26;16.83;;;4.57;;
56927;SDS011;60850;52.502;13.426;2023-02-22T08:42:56;18.08;;;5.82;;
56927;SDS011;60850;52.502;13.426;2023-02-22T08:45:23;19.35;;;4.65;;
56927;SDS011;60850;52.502;13.426;2023-02-22T08:47:51;23.02;;;4.63;;
56927;SDS011;60850;52.502;13.426;2023-02-22T08:50:19;20.48;;;5.00;;
56927;SDS011;60850;52.502;13.426;2023-02-22T08:52:48;19.13;;;4.88;;
56927;SDS011;60850;52.502;13.426;2023-02-22T08:55:17;21.48;;;5.40;;
56927;SDS011;60850;52.502;13.426;2023-02-22T08:57:45;16.27;;;4.57;;
56927;SDS011;60850;52.502;13.426;2023-02-22T09:00:14;19.02;;;4.43;;
56927;SDS011;60850;52.502;13.426;2023-02-22T09:02:43;15.63;;;4.40;;
56927;SDS011;60850;52.502;13.426;2023-02-22T09:05:09;20.70;;;5.15;;
56927;SDS011;60850;52.502;13.426;2023-02-22T09:07:39;17.02;;;4.43;;
56927;SDS011;60850;52.502;13.426;2023-02-22T09:10:07;16.45;;;4.50;;
56927;SDS011;60850;52.502;13.426;2023-02-22T09:12:35;19.35;;;3.83;;
56927;SDS011;60850;52.502;13.426;2023-02-22T09:15:02;18.35;;;3.65;;
56927;SDS011;60850;52.502;13.426;2023-02-22T09:17:30;21.25;;;4.68;;
56927;SDS011;60850;52.502;13.426;2023-02-22T09:19:57;15.40;;;4.07;;
56927;SDS011;60850;52.502;13.426;2023-02-22T09:22:24;15.52;;;4.07;;
56927;SDS011;60850;52.502;13.426;2023-02-22T09:24:51;15.57;;;3.95;;
56927;SDS011;60850;52.502;13.426;2023-02-22T09:27:19;17.88;;;4.25;;
56927;SDS011;60850;52.502;13.426;2023-02-22T09:29:46;16.67;;;4.22;;
56927;SDS011;60850;52.502;13.426;2023-02-22T09:32:13;16.05;;;3.80;;
56927;SDS011;60850;52.502;13.426;2023-02-22T09:34:43;20.55;;;4.75;;
56927;SDS011;60850;52.502;13.426;2023-02-22T09:37:12;16.27;;;4.25;;
56927;SDS011;60850;52.502;13.426;2023-02-22T09:39:39;21.90;;;3.83;;
56927;SDS011;60850;52.502;13.426;2023-02-22T09:42:08;12.00;;;3.40;;
56927;SDS011;60850;52.502;13.426;2023-02-22T09:44:40;20.13;;;3.65;;
56927;SDS011;60850;52.502;13.426;2023-02-22T09:49:45;15.75;;;5.18;;
56927;SDS011;60850;52.502;13.426;2023-02-22T09:52:23;19.88;;;5.05;;
56927;SDS011;60850;52.502;13.426;2023-02-22T09:54:54;16.25;;;3.15;;
56927;SDS011;60850;52.502;13.426;2023-02-22T09:57:32;19.20;;;3.88;;
56927;SDS011;60850;52.502;13.426;2023-02-22T10:00:05;18.35;;;3.58;;
56927;SDS011;60850;52.502;13.426;2023-02-22T10:02:42;15.45;;;3.33;;
56927;SDS011;60850;52.502;13.426;2023-02-22T10:05:17;19.13;;;3.55;;
56927;SDS011;60850;52.502;13.426;2023-02-22T10:07:50;13.77;;;3.05;;
56927;SDS011;60850;52.502;13.426;2023-02-22T10:10:29;22.38;;;3.42;;
56927;SDS011;60850;52.502;13.426;2023-02-22T10:13:00;12.50;;;2.97;;
56927;SDS011;60850;52.502;13.426;2023-02-22T10:15:41;14.27;;;2.88;;
56927;SDS011;60850;52.502;13.426;2023-02-22T10:21:30;18.05;;;4.32;;
56927;SDS011;60850;52.502;13.426;2023-02-22T10:24:10;16.52;;;3.22;;
56927;SDS011;60850;52.502;13.426;2023-02-22T10:26:44;17.45;;;3.67;;
56927;SDS011;60850;52.502;13.426;2023-02-22T10:29:13;14.88;;;3.58;;
56927;SDS011;60850;52.502;13.426;2023-02-22T10:31:47;16.70;;;3.00;;
56927;SDS011;60850;52.502;13.426;2023-02-22T10:34:20;14.68;;;3.05;;
56927;SDS011;60850;52.502;13.426;2023-02-22T10:36:53;14.88;;;2.60;;
56927;SDS011;60850;52.502;13.426;2023-02-22T10:39:26;15.27;;;3.38;;
56927;SDS011;60850;52.502;13.426;2023-02-22T10:41:56;15.80;;;3.65;;
56927;SDS011;60850;52.502;13.426;2023-02-22T10:44:30;17.75;;;3.22;;
56927;SDS011;60850;52.502;13.426;2023-02-22T10:46:57;18.77;;;2.80;;
56927;SDS011;60850;52.502;13.426;2023-02-22T10:49:27;15.85;;;2.78;;
56927;SDS011;60850;52.502;13.426;2023-02-22T10:52:01;14.30;;;3.55;;
56927;SDS011;60850;52.502;13.426;2023-02-22T10:54:30;13.93;;;2.88;;
56927;SDS011;60850;52.502;13.426;2023-02-22T10:56:59;16.20;;;3.22;;
56927;SDS011;60850;52.502;13.426;2023-02-22T10:59:29;20.00;;;3.80;;
56927;SDS011;60850;52.502;13.426;2023-02-22T11:01:58;17.02;;;3.15;;
56927;SDS011;60850;52.502;13.426;2023-02-22T11:04:26;14.95;;;3.15;;
56927;SDS011;60850;52.502;13.426;2023-02-22T11:07:07;15.20;;;2.88;;
56927;SDS011;60850;52.502;13.426;2023-02-22T11:09:46;12.38;;;2.88;;
56927;SDS011;60850;52.502;13.426;2023-02-22T11:12:18;16.02;;;3.20;;
56927;SDS011;60850;52.502;13.426;2023-02-22T11:14:46;20.25;;;3.70;;
56927;SDS011;60850;52.502;13.426;2023-02-22T11:17:16;16.60;;;2.95;;
56927;SDS011;60850;52.502;13.426;2023-02-22T11:19:47;21.08;;;3.55;;
56927;SDS011;60850;52.502;13.426;2023-02-22T11:22:21;8.77;;;2.45;;
56927;SDS011;60850;52.502;13.426;2023-02-22T11:24:51;15.55;;;3.50;;
56927;SDS011;60850;52.502;13.426;2023-02-22T11:27:23;18.98;;;3.42;;
56927;SDS011;60850;52.502;13.426;2023-02-22T11:29:52;16.25;;;3.38;;
56927;SDS011;60850;52.502;13.426;2023-02-22T11:32:21;12.73;;;3.13;;
56927;SDS011;60850;52.502;13.426;2023-02-22T11:34:49;23.63;;;4.50;;
56927;SDS011;60850;52.502;13.426;2023-02-22T11:37:26;14.75;;;3.00;;
56927;SDS011;60850;52.502;13.426;2023-02-22T11:40:02;18.20;;;3.85;;
56927;SDS011;60850;52.502;13.426;2023-02-22T11:42:38;9.98;;;2.45;;
56927;SDS011;60850;52.502;13.426;2023-02-22T11:45:09;13.23;;;2.72;;
56927;SDS011;60850;52.502;13.426;2023-02-22T11:47:45;14.77;;;3.00;;
56927;SDS011;60850;52.502;13.426;2023-02-22T11:50:20;14.88;;;3.10;;
56927;SDS011;60850;52.502;13.426;2023-02-22T11:52:55;16.73;;;2.90;;
56927;SDS011;60850;52.502;13.426;2023-02-22T11:55:43;17.60;;;3.30;;
56927;SDS011;60850;52.502;13.426;2023-02-22T11:58:22;14.95;;;3.10;;
56927;SDS011;60850;52.502;13.426;2023-02-22T12:00:56;11.68;;;2.75;;
56927;SDS011;60850;52.502;13.426;2023-02-22T12:03:34;16.40;;;2.45;;
56927;SDS011;60850;52.502;13.426;2023-02-22T12:06:20;13.95;;;2.53;;
56927;SDS011;60850;52.502;13.426;2023-02-22T12:09:02;18.08;;;2.80;;
56927;SDS011;60850;52.502;13.426;2023-02-22T12:11:39;10.73;;;2.72;;
56927;SDS011;60850;52.502;13.426;2023-02-22T12:14:21;17.98;;;2.42;;
56927;SDS011;60850;52.502;13.426;2023-02-22T12:17:01;12.88;;;2.58;;
56927;SDS011;60850;52.502;13.426;2023-02-22T12:19:40;14.70;;;2.25;;
56927;SDS011;60850;52.502;13.426;2023-02-22T12:22:11;17.58;;;3.42;;
56927;SDS011;60850;52.502;13.426;2023-02-22T12:24:45;14.85;;;3.28;;
56927;SDS011;60850;52.502;13.426;2023-02-22T12:27:17;11.75;;;2.90;;
56927;SDS011;60850;52.502;13.426;2023-02-22T12:29:48;13.40;;;2.10;;
56927;SDS011;60850;52.502;13.426;2023-02-22T12:32:19;13.77;;;2.78;;
56927;SDS011;60850;52.502;13.426;2023-02-22T12:34:56;8.05;;;2.65;;
56927;SDS011;60850;52.502;13.426;2023-02-22T12:37:31;13.20;;;1.90;;
56927;SDS011;60850;52.502;13.426;2023-02-22T12:40:09;15.70;;;2.67;;
56927;SDS011;60850;52.502;13.426;2023-02-22T12:42:44;13.20;;;2.50;;
56927;SDS011;60850;52.502;13.426;2023-02-22T12:45:18;16.20;;;2.95;;
56927;SDS011;60850;52.502;13.426;2023-02-22T12:47:54;18.10;;;2.85;;
56927;SDS011;60850;52.502;13.426;2023-02-22T12:50:31;17.27;;;2.53;;
56927;SDS011;60850;52.502;13.426;2023-02-22T12:53:01;11.75;;;3.58;;
56927;SDS011;60850;52.502;13.426;2023-02-22T12:55:36;11.80;;;2.28;;
56927;SDS011;60850;52.502;13.426;2023-02-22T12:58:14;18.92;;;3.08;;
56927;SDS011;60850;52.502;13.426;2023-02-22T13:00:50;12.95;;;2.72;;
56927;SDS011;60850;52.502;13.426;2023-02-22T13:03:26;11.98;;;2.05;;
56927;SDS011;60850;52.502;13.426;2023-02-22T13:06:01;13.27;;;1.80;;
56927;SDS011;60850;52.502;13.426;2023-02-22T13:08:44;15.10;;;2.05;;
56927;SDS011;60850;52.502;13.426;2023-02-22T13:11:24;8.02;;;1.77;;
56927;SDS011;60850;52.502;13.426;2023-02-22T13:14:03;12.77;;;1.92;;
56927;SDS011;60850;52.502;13.426;2023-02-22T13:16:44;11.63;;;2.20;;
56927;SDS011;60850;52.502;13.426;2023-02-22T13:19:22;10.07;;;2.25;;
56927;SDS011;60850;52.502;13.426;2023-02-22T13:21:59;12.77;;;1.95;;
56927;SDS011;60850;52.502;13.426;2023-02-22T13:24:33;14.88;;;2.15;;
56927;SDS011;60850;52.502;13.426;2023-02-22T13:27:10;13.30;;;2.00;;
56927;SDS011;60850;52.502;13.426;2023-02-22T13:29:43;16.10;;;2.30;;
56927;SDS011;60850;52.502;13.426;2023-02-22T13:32:21;10.85;;;2.70;;
56927;SDS011;60850;52.502;13.426;2023-02-22T13:34:59;7.80;;;2.30;;
56927;SDS011;60850;52.502;13.426;2023-02-22T13:40:54;11.73;;;1.77;;
56927;SDS011;60850;52.502;13.426;2023-02-22T13:43:41;7.90;;;1.80;;
56927;SDS011;60850;52.502;13.426;2023-02-22T13:46:30;9.02;;;2.00;;
56927;SDS011;60850;52.502;13.426;2023-02-22T13:49:30;10.10;;;2.05;;
56927;SDS011;60850;52.502;13.426;2023-02-22T13:52:14;10.15;;;2.72;;
56927;SDS011;60850;52.502;13.426;2023-02-22T13:54:46;12.65;;;2.47;;
56927;SDS011;60850;52.502;13.426;2023-02-22T13:57:20;12.85;;;2.25;;
56927;SDS011;60850;52.502;13.426;2023-02-22T13:59:54;13.05;;;2.20;;
56927;SDS011;60850;52.502;13.426;2023-02-22T14:03:00;10.23;;;1.88;;
56927;SDS011;60850;52.502;13.426;2023-02-22T14:05:48;13.25;;;2.60;;
56927;SDS011;60850;52.502;13.426;2023-02-22T14:13:30;12.50;;;2.05;;
56927;SDS011;60850;52.502;13.426;2023-02-22T14:18:48;8.07;;;2.00;;
56927;SDS011;60850;52.502;13.426;2023-02-22T14:21:26;10.45;;;2.35;;
56927;SDS011;60850;52.502;13.426;2023-02-22T14:23:54;8.25;;;1.65;;
56927;SDS011;60850;52.502;13.426;2023-02-22T14:26:31;11.20;;;1.88;;
56927;SDS011;60850;52.502;13.426;2023-02-22T14:29:02;19.58;;;2.85;;
56927;SDS011;60850;52.502;13.426;2023-02-22T14:31:54;13.10;;;2.08;;
56927;SDS011;60850;52.502;13.426;2023-02-22T14:34:40;13.05;;;2.35;;
56927;SDS011;60850;52.502;13.426;2023-02-22T14:37:11;7.65;;;1.60;;
56927;SDS011;60850;52.502;13.426;2023-02-22T14:39:43;12.15;;;1.80;;
56927;SDS011;60850;52.502;13.426;2023-02-22T14:42:13;10.07;;;1.92;;
56927;SDS011;60850;52.502;13.426;2023-02-22T14:44:47;6.50;;;1.55;;
56927;SDS011;60850;52.502;13.426;2023-02-22T14:47:22;10.98;;;2.65;;
56927;SDS011;60850;52.502;13.426;2023-02-22T14:49:54;15.77;;;1.87;;
56927;SDS011;60850;52.502;13.426;2023-02-22T14:52:26;10.60;;;2.63;;
56927;SDS011;60850;52.502;13.426;2023-02-22T14:54:58;11.88;;;2.22;;
56927;SDS011;60850;52.502;13.426;2023-02-22T14:57:33;14.35;;;2.80;;
56927;SDS011;60850;52.502;13.426;2023-02-22T15:00:14;16.23;;;2.88;;
56927;SDS011;60850;52.502;13.426;2023-02-22T15:02:56;8.90;;;1.85;;
56927;SDS011;60850;52.502;13.426;2023-02-22T15:05:25;13.65;;;2.55;;
56927;SDS011;60850;52.502;13.426;2023-02-22T15:07:55;13.45;;;2.92;;